• Join FlightAware (Why Join?)
  • Login
  • US Flag 
03:08AM EDT


 

Airport Tracker/Info


-or-


 

Live Flight TrackerFlight Track Log ✈ SWA559 ✈ 05-Apr-2013 ✈ KLAS - KPIT

Flight Track Log - Related Links

Times and Time Zones

All times are in EDT time to prevent confusion due to time zone crossing. See the SWA559 flight status page for this flight to view local times or setup timezone preferences in your user account.

Time Position Orientation Groundspeed Altitude Reporting Facility
EDT Latitude Longitude Course Direction KTS MPH feet Rate Location/Type
09:12PM 36.0767 -115.1706 272° West 168 193 3,400  Level Los Angeles Center
09:12PM 36.0783 -115.2286 272° West 193 222 4,800 1,800 Climbing Los Angeles Center
09:13PM 36.0778 -115.2497 268° West 194 223 5,600 2,820 Climbing Los Angeles Center
09:14PM 36.1186 -115.2953 318° Northwest 259 298 8,000 2,820 Climbing Los Angeles Center
09:15PM 36.1797 -115.2378 37° Northeast 294 338 10,800 2,580 Climbing Los Angeles Center
09:16PM 36.1953 -115.1208 81° East 353 406 13,300 2,400 Climbing Los Angeles Center
09:16PM 36.1969 -115.1025 84° East 340 391 13,900 2,520 Climbing Los Angeles Center
09:17PM 36.1978 -114.9789 89° East 357 411 16,600 2,340 Climbing Los Angeles Center
09:18PM 36.1983 -114.8442 90° East 383 441 19,300 2,700 Climbing Los Angeles Center
09:19PM 36.1972 -114.6456 90° East 411 473 22,800 2,100 Climbing Los Angeles Center
09:20PM 36.1947 -114.5000 91° East 422 486 23,700 1,140 Climbing Los Angeles Center
09:21PM 36.1931 -114.3503 91° East 434 499 25,200 1,440 Climbing Los Angeles Center
09:22PM 36.1969 -114.1919 88° East 456 525 26,700 1,440 Climbing Los Angeles Center
09:23PM 36.2186 -114.0283 81° East 478 550 28,200 1,440 Climbing Los Angeles Center
09:24PM 36.2375 -113.8628 82° East 486 559 29,700 1,740 Climbing Los Angeles Center
09:25PM 36.2622 -113.6583 81° East 497 572 31,800 1,980 Climbing Los Angeles Center
09:26PM 36.2806 -113.4908 82° East 495 570 33,800 1,620 Climbing Los Angeles Center
09:27PM 36.3000 -113.3264 82° East 486 559 35,200 1,260 Climbing Los Angeles Center
09:28PM 36.3353 -113.1592 75° East 486 559 36,400 840 Climbing Los Angeles Center
09:29PM 36.3919 -113.0106 65° Northeast 480 552 37,000 240 Climbing Los Angeles Center
09:30PM 36.4478 -112.8597 65° Northeast 482 555 37,000  Level Los Angeles Center
09:31PM 36.5033 -112.7083 65° Northeast 484 557 37,000  Level Los Angeles Center
09:33PM 36.5586 -112.5581 65° Northeast 481 554 37,000  Level Los Angeles Center
09:34PM 36.6250 -112.3775 65° Northeast 481 554 37,000  Level Los Angeles Center
09:35PM 36.6783 -112.2294 66° East 473 544 37,000  Level Los Angeles Center
09:36PM 36.7317 -112.0814 66° East 471 542 37,000  Level Los Angeles Center
09:36PM 36.7742 -111.9650 65° Northeast 469 540 37,000  Level Denver Center
09:37PM 36.8283 -111.8144 66° East 475 547 37,000  Level Denver Center
09:38PM 36.8822 -111.6642 66° East 476 548 37,000  Level Denver Center
09:39PM 36.9361 -111.5119 66° East 479 551 37,000  Level Denver Center
09:40PM 36.9900 -111.3572 66° East 484 557 37,000  Level Denver Center
09:41PM 37.0428 -111.2033 67° East 487 560 37,000  Level Denver Center
09:43PM 37.1089 -111.0158 66° East 493 567 37,000  Level Denver Center
09:44PM 37.1639 -110.8606 66° East 492 566 37,000  Level Denver Center
09:45PM 37.2167 -110.7031 67° East 493 567 37,000  Level Denver Center
09:46PM 37.2714 -110.5456 66° East 493 567 37,000  Level Denver Center
09:47PM 37.3258 -110.3889 66° East 492 566 37,000  Level Denver Center
09:48PM 37.3778 -110.2308 67° East 490 564 37,000  Level Denver Center
09:49PM 37.4411 -110.0444 67° East 498 573 37,000  Level Denver Center
09:50PM 37.4919 -109.8925 67° East 494 568 37,000  Level Denver Center
09:51PM 37.5522 -109.7136 67° East 495 570 37,000  Level Denver Center
09:52PM 37.6031 -109.5578 68° East 501 577 37,000  Level Denver Center
09:53PM 37.6625 -109.3781 67° East 498 573 37,000  Level Denver Center
09:54PM 37.7139 -109.2250 67° East 494 568 37,000  Level Denver Center
09:55PM 37.7628 -109.0700 68° East 494 568 37,000  Level Denver Center
09:56PM 37.8214 -108.8914 67° East 493 567 37,000  Level Denver Center
09:57PM 37.8758 -108.7400 65° Northeast 493 567 37,000  Level Denver Center
09:58PM 37.9383 -108.5606 66° East 496 571 37,000  Level Denver Center
09:59PM 37.9914 -108.4078 66° East 496 571 37,000  Level Denver Center
10:00PM 38.0531 -108.2258 67° East 500 575 37,000  Level Denver Center
10:01PM 38.1117 -108.0567 66° East 502 578 37,000  Level Denver Center
10:02PM 38.1639 -107.9014 67° East 499 574 37,000  Level Denver Center
10:03PM 38.2153 -107.7475 67° East 497 572 37,000  Level Denver Center
10:04PM 38.2761 -107.5700 66° East 493 567 37,000  Level Denver Center
10:05PM 38.3269 -107.4172 67° East 492 566 37,000  Level Denver Center
10:06PM 38.3847 -107.2403 67° East 485 558 37,000  Level Denver Center
10:07PM 38.4394 -107.0786 67° East 489 563 37,000  Level Denver Center
10:08PM 38.4783 -106.9111 73° East 499 574 37,000  Level Denver Center
10:09PM 38.5111 -106.7419 76° East 495 570 37,000  Level Denver Center
10:10PM 38.5433 -106.5725 76° East 493 567 37,000  Level Denver Center
10:11PM 38.5761 -106.4050 76° East 488 562 37,000  Level Denver Center
10:12PM 38.6131 -106.2172 76° East 457 526 37,000  Level Denver Center
10:13PM 38.6417 -106.0686 76° East 474 545 37,000  Level Denver Center
10:14PM 38.6794 -105.8708 76° East 487 560 37,000  Level Denver Center
10:16PM 38.7117 -105.6997 76° East 491 565 37,000  Level Denver Center
10:17PM 38.7436 -105.5278 77° East 492 566 37,000  Level Denver Center
10:18PM 38.7753 -105.3544 77° East 498 573 37,000  Level Denver Center
10:19PM 38.8072 -105.1853 76° East 489 563 37,000  Level Denver Center
10:20PM 38.8369 -105.0167 77° East 484 557 37,000  Level Denver Center
10:21PM 38.8678 -104.8481 77° East 483 556 37,000  Level Denver Center
10:22PM 38.8989 -104.6783 77° East 486 559 37,000  Level Denver Center
10:23PM 38.9342 -104.4786 77° East 489 563 37,000 540 Level Denver Center
10:24PM 38.9633 -104.3069 78° East 489 563 38,200 960 Climbing Denver Center
10:25PM 38.9931 -104.1372 77° East 487 560 39,000 360 Climbing Denver Center
10:26PM 39.0219 -103.9667 78° East 487 560 39,000  Level Denver Center
10:27PM 39.0506 -103.7969 78° East 484 557 39,000  Level Denver Center
10:28PM 39.0792 -103.6261 78° East 485 558 39,000  Level Denver Center
10:29PM 39.1089 -103.4547 77° East 486 559 39,000  Level Denver Center
10:30PM 39.1425 -103.2567 78° East 483 556 39,000  Level Denver Center
10:31PM 39.1686 -103.0886 79° East 477 549 39,000  Level Denver Center
10:32PM 39.1969 -102.9189 78° East 480 552 39,000  Level Denver Center
10:33PM 39.2239 -102.7503 78° East 479 551 39,000  Level Denver Center
10:34PM 39.2481 -102.5933 79° East 479 551 39,000  Level Denver Center
10:35PM 39.2778 -102.4056 78° East 479 551 39,000  Level Denver Center
10:36PM 39.3036 -102.2433 78° East 481 554 39,000  Level Denver Center
10:37PM 39.3306 -102.0606 79° East 480 552 39,000  Level Denver Center
10:38PM 39.3592 -101.8778 78° East 479 551 39,000  Level Denver Center
10:39PM 39.3842 -101.7167 79° East 480 552 39,000  Level Denver Center
10:40PM 39.4111 -101.5558 78° East 481 554 39,000  Level Denver Center
10:41PM 39.4439 -101.3678 77° East 481 554 39,000  Level Denver Center
10:42PM 39.4722 -101.2067 77° East 483 556 39,000  Level Denver Center
10:43PM 39.5036 -101.0161 78° East 486 559 39,000  Level Denver Center
10:44PM 39.5306 -100.8533 78° East 485 558 39,000  Level Denver Center
10:45PM 39.5614 -100.6611 78° East 488 562 39,000  Level Denver Center
10:46PM 39.5883 -100.4975 78° East 488 562 39,000  Level Denver Center
10:47PM 39.6186 -100.3128 78° East 474 545 39,000  Level Denver Center
10:48PM 39.6436 -100.1542 78° East 472 543 39,000  Level Denver Center
10:49PM 39.6697 -99.9936 78° East 476 548 39,000  Level Denver Center
10:50PM 39.6983 -99.8039 79° East 479 551 39,000  Level Denver Center
10:52PM 39.7306 -99.6008 78° East 479 551 39,000  Level Denver Center
10:53PM 39.7558 -99.4333 79° East 476 548 39,000  Level Denver Center
10:54PM 39.7814 -99.2647 79° East 476 548 39,000  Level Denver Center
10:55PM 39.8069 -99.0961 79° East 476 548 39,000  Level Denver Center
10:56PM 39.8378 -98.8914 79° East 482 555 39,000  Level Denver Center
10:56PM 39.8472 -98.8242 80° East 481 554 39,000  Level Minneapolis Center
10:57PM 39.8714 -98.6519 80° East 484 557 39,000  Level Minneapolis Center
10:58PM 39.8872 -98.5475 79° East 488 562 39,000  Level Denver Center
10:58PM 39.8969 -98.4783 80° East 488 562 39,000  Level Minneapolis Center
10:59PM 39.9222 -98.3036 79° East 491 565 39,000  Level Minneapolis Center
11:00PM 39.9469 -98.1289 79° East 493 567 39,000  Level Minneapolis Center
11:01PM 39.9764 -97.9192 80° East 493 567 39,000  Level Minneapolis Center
11:02PM 40.0006 -97.7431 80° East 493 567 39,000  Level Minneapolis Center
11:03PM 40.0239 -97.5692 80° East 490 564 39,000  Level Minneapolis Center
11:05PM 40.0475 -97.3953 80° East 487 560 39,000  Level Minneapolis Center
11:06PM 40.0697 -97.2256 80° East 486 559 39,000  Level Minneapolis Center
11:07PM 40.0917 -97.0558 80° East 480 552 39,000  Level Minneapolis Center
11:08PM 40.1139 -96.8867 80° East 476 548 39,000  Level Minneapolis Center
11:09PM 40.1356 -96.7178 80° East 474 545 39,000  Level Minneapolis Center
11:10PM 40.1572 -96.5500 80° East 472 543 39,000  Level Minneapolis Center
11:11PM 40.1831 -96.3428 81° East 479 551 39,000  Level Minneapolis Center
11:12PM 40.2053 -96.1728 80° East 478 550 39,000  Level Minneapolis Center
11:13PM 40.2381 -96.0042 76° East 478 550 39,000  Level Minneapolis Center
11:14PM 40.2697 -95.8306 77° East 489 563 39,000  Level Minneapolis Center
11:15PM 40.3014 -95.6592 76° East 488 562 39,000  Level Minneapolis Center
11:16PM 40.3333 -95.4856 76° East 491 565 39,000  Level Minneapolis Center
11:17PM 40.3650 -95.3125 76° East 491 565 39,000  Level Minneapolis Center
11:18PM 40.3956 -95.1389 77° East 491 565 39,000  Level Minneapolis Center
11:19PM 40.4264 -94.9647 77° East 492 566 39,000  Level Minneapolis Center
11:20PM 40.4617 -94.7567 77° East 489 563 39,000  Level Minneapolis Center
11:21PM 40.4931 -94.5836 77° East 489 563 39,000  Level Minneapolis Center
11:22PM 40.5192 -94.4303 77° East 489 563 39,000  Level Minneapolis Center
11:23PM 40.5475 -94.2581 78° East 486 559 39,000  Level Minneapolis Center
11:24PM 40.5775 -94.0853 77° East 488 562 39,000  Level Minneapolis Center
11:25PM 40.6119 -93.8781 78° East 487 560 39,000  Level Minneapolis Center
11:26PM 40.6350 -93.7036 80° East 487 560 39,000  Level Minneapolis Center
11:27PM 40.6594 -93.5303 79° East 486 559 39,000  Level Minneapolis Center
11:28PM 40.6850 -93.3542 79° East 489 563 39,000  Level Minneapolis Center
11:29PM 40.7117 -93.1761 79° East 493 567 39,000  Level Minneapolis Center
11:30PM 40.7364 -92.9986 80° East 495 570 39,000  Level Minneapolis Center
11:31PM 40.7614 -92.8219 79° East 493 567 39,000  Level Minneapolis Center
11:32PM 40.7858 -92.6450 80° East 490 564 39,000  Level Minneapolis Center
11:33PM 40.8100 -92.4669 80° East 491 565 39,000  Level Minneapolis Center
11:34PM 40.8342 -92.2881 80° East 494 568 39,000  Level Minneapolis Center
11:35PM 40.8575 -92.1083 80° East 496 571 39,000  Level Minneapolis Center
11:36PM 40.8856 -91.8894 80° East 503 579 39,000  Level Minneapolis Center
11:37PM 40.9061 -91.7278 80° East 504 580 39,000  Level Minneapolis Center
11:38PM 40.9322 -91.5261 80° East 506 582 39,000  Level Chicago Center
11:39PM 40.9600 -91.3064 80° East 507 583 39,000  Level Chicago Center
11:40PM 40.9817 -91.1297 81° East 508 585 39,000  Level Chicago Center
11:41PM 41.0039 -90.9442 81° East 510 587 39,000  Level Chicago Center
11:42PM 41.0267 -90.7589 81° East 509 586 39,000  Level Chicago Center
11:43PM 41.0486 -90.5739 81° East 508 585 39,000  Level Chicago Center
11:44PM 41.0711 -90.3894 81° East 507 583 39,000  Level Chicago Center
11:45PM 41.0833 -90.2058 85° East 499 574 39,000  Level Chicago Center
11:46PM 41.0894 -90.0186 87° East 501 577 39,000  Level Chicago Center
11:47PM 41.0975 -89.8322 87° East 502 578 39,000  Level Chicago Center
11:48PM 41.1036 -89.6464 87° East 502 578 39,000  Level Chicago Center
11:49PM 41.1117 -89.4600 87° East 503 579 39,000  Level Chicago Center
11:50PM 41.1178 -89.2781 87° East 497 572 39,000  Level Chicago Center
11:51PM 41.1231 -89.0864 88° East 498 573 39,000  Level Chicago Center
11:52PM 41.1292 -88.9047 87° East 498 573 39,000  Level Chicago Center
11:53PM 41.1336 -88.7219 88° East 502 578 39,000  Level Chicago Center
11:54PM 41.1392 -88.5411 88° East 497 572 39,000  Level Chicago Center
11:55PM 41.1444 -88.3608 88° East 495 570 39,000  Level Chicago Center
11:56PM 41.1497 -88.1772 88° East 501 577 39,000  Level Chicago Center
11:57PM 41.1525 -87.9969 89° East 499 574 39,000  Level Chicago Center
11:58PM 41.1586 -87.7811 88° East 498 573 39,000  Level Chicago Center
11:59PM 41.1631 -87.6003 88° East 497 572 39,000  Level Chicago Center
12:01AM 41.1664 -87.4175 89° East 500 575 39,000  Level Chicago Center
12:02AM 41.1681 -87.2350 89° East 501 577 39,000  Level Chicago Center
12:03AM 41.1708 -87.0503 89° East 503 579 39,000  Level Chicago Center
12:04AM 41.1731 -86.8647 89° East 505 581 39,000  Level Chicago Center
12:05AM 41.1769 -86.6619 88° East 508 585 39,000  Level Chicago Center
12:06AM 41.1783 -86.4747 89° East 509 586 39,000  Level Chicago Center
12:07AM 41.1803 -86.2894 89° East 506 582 39,000  Level Chicago Center
12:08AM 41.1814 -86.1036 89° East 507 583 39,000  Level Chicago Center
12:09AM 41.1822 -85.9194 90° East 505 581 39,000  Level Chicago Center
12:10AM 41.1828 -85.7333 90° East 506 582 39,000  Level Chicago Center
12:11AM 41.1833 -85.5511 90° East 501 577 39,000  Level Chicago Center
12:12AM 41.1833 -85.3683 90° East 500 575 39,000  Level Chicago Center
12:13AM 41.1819 -85.1817 91° East 509 586 39,000  Level Chicago Center
12:14AM 41.1825 -85.0006 90° East 502 578 39,000  Level Chicago Center
12:15AM 41.1822 -84.8175 90° East 500 575 39,000  Level Chicago Center
12:16AM 41.1628 -84.6358 98° East 500 575 39,000  Level Chicago Center
12:17AM 41.1339 -84.4158 100° East 505 581 39,000  Level Chicago Center
12:18AM 41.1100 -84.2328 100° East 505 581 39,000 -120 Level Chicago Center
12:19AM 41.0856 -84.0528 100° East 500 575 38,800 -600 Descending Chicago Center
12:20AM 41.0589 -83.8703 101° East 505 581 37,800 -1,020 Descending Chicago Center
12:21AM 41.0342 -83.6858 100° East 509 586 36,800 -960 Descending Chicago Center
12:22AM 41.0078 -83.5022 101° East 508 585 35,900 -960 Descending Chicago Center
12:23AM 40.9806 -83.3225 101° East 509 586 34,900 -960 Descending Cleveland Center
12:24AM 40.9517 -83.1372 102° East 509 586 34,000 -1,020 Descending Cleveland Center
12:25AM 40.9286 -82.9522 99° East 509 586 32,900 -1,020 Descending Cleveland Center
12:26AM 40.8986 -82.7725 102° East 509 586 32,000 -900 Descending Cleveland Center
12:27AM 40.8708 -82.5903 101° East 509 586 31,100 -540 Descending Cleveland Center
12:28AM 40.8425 -82.4056 101° East 509 586 31,000 -840 Descending Cleveland Center
12:29AM 40.8164 -82.2211 101° East 509 586 29,500 -1,740 Descending Cleveland Center
12:30AM 40.7814 -82.0228 103° East 509 586 27,600 -2,100 Descending Cleveland Center
12:31AM 40.7564 -81.8411 100° East 503 579 25,400 -2,400 Descending Cleveland Center
12:32AM 40.7292 -81.6681 102° East 493 567 22,800 -2,580 Descending Cleveland Center
12:33AM 40.7014 -81.5061 103° East 468 539 20,300 -2,460 Descending Cleveland Center
12:34AM 40.6775 -81.3497 101° East 446 513 17,900 -2,520 Descending Cleveland Center
12:35AM 40.6533 -81.1933 101° East 440 506 15,300 -2,640 Descending Cleveland Center
12:36AM 40.6292 -81.0428 102° East 422 486 12,700 -2,580 Descending Cleveland Center
12:37AM 40.6067 -80.9003 102° East 411 473 10,200 -1,500 Descending Cleveland Center
12:38AM 40.5839 -80.7772 104° East 382 440 9,800 -1,080 Descending Cleveland Center
12:39AM 40.5633 -80.6678 104° East 338 389 8,100 -1,680 Descending Cleveland Center
12:40AM 40.5425 -80.5639 105° East 310 357 6,500 -1,800 Descending Cleveland Center
12:41AM 40.5194 -80.4711 108° East 283 326 4,500 -1,620 Descending Cleveland Center
12:42AM 40.5069 -80.3975 103° East 243 280 3,300 -1,140 Descending Cleveland Center
12:43AM 40.5047 -80.3400 93° East 192 221 2,300 -840 Descending Cleveland Center
12:44AM 40.5025 -80.2936 94° East 161 185 1,700 -600 Descending Cleveland Center
12:46AM 40.4915 -80.2329 90° East  Level Estimated